sensor_id;sensor_type;location;lat;lon;timestamp;P1;durP1;ratioP1;P2;durP2;ratioP2
6840;SDS011;3458;53.678;14.080;2023-06-22T00:00:54;7.30;;;5.00;;
6840;SDS011;3458;53.678;14.080;2023-06-22T00:03:20;6.07;;;4.67;;
6840;SDS011;3458;53.678;14.080;2023-06-22T00:05:47;9.10;;;4.80;;
6840;SDS011;3458;53.678;14.080;2023-06-22T00:08:13;6.30;;;5.17;;
6840;SDS011;3458;53.678;14.080;2023-06-22T00:10:39;7.80;;;5.07;;
6840;SDS011;3458;53.678;14.080;2023-06-22T00:13:05;6.23;;;4.80;;
6840;SDS011;3458;53.678;14.080;2023-06-22T00:15:31;8.03;;;5.10;;
6840;SDS011;3458;53.678;14.080;2023-06-22T00:17:57;9.83;;;4.80;;
6840;SDS011;3458;53.678;14.080;2023-06-22T00:20:23;6.77;;;5.10;;
6840;SDS011;3458;53.678;14.080;2023-06-22T00:22:56;6.00;;;5.20;;
6840;SDS011;3458;53.678;14.080;2023-06-22T00:25:22;8.10;;;5.10;;
6840;SDS011;3458;53.678;14.080;2023-06-22T00:27:48;11.57;;;4.87;;
6840;SDS011;3458;53.678;14.080;2023-06-22T00:30:18;6.10;;;5.00;;
6840;SDS011;3458;53.678;14.080;2023-06-22T00:32:44;9.40;;;4.70;;
6840;SDS011;3458;53.678;14.080;2023-06-22T00:35:10;8.07;;;4.80;;
6840;SDS011;3458;53.678;14.080;2023-06-22T00:37:37;11.17;;;5.33;;
6840;SDS011;3458;53.678;14.080;2023-06-22T00:40:05;7.53;;;4.50;;
6840;SDS011;3458;53.678;14.080;2023-06-22T00:42:33;9.53;;;5.23;;
6840;SDS011;3458;53.678;14.080;2023-06-22T00:44:59;10.87;;;5.30;;
6840;SDS011;3458;53.678;14.080;2023-06-22T00:47:26;7.47;;;5.27;;
6840;SDS011;3458;53.678;14.080;2023-06-22T00:49:52;8.10;;;5.20;;
6840;SDS011;3458;53.678;14.080;2023-06-22T00:52:27;5.87;;;5.27;;
6840;SDS011;3458;53.678;14.080;2023-06-22T00:54:54;7.50;;;5.20;;
6840;SDS011;3458;53.678;14.080;2023-06-22T00:57:21;7.10;;;4.57;;
6840;SDS011;3458;53.678;14.080;2023-06-22T00:59:50;5.80;;;5.20;;
6840;SDS011;3458;53.678;14.080;2023-06-22T01:02:16;8.23;;;5.40;;
6840;SDS011;3458;53.678;14.080;2023-06-22T01:04:41;6.80;;;4.97;;
6840;SDS011;3458;53.678;14.080;2023-06-22T01:07:10;7.40;;;4.90;;
6840;SDS011;3458;53.678;14.080;2023-06-22T01:10:05;6.10;;;5.50;;
6840;SDS011;3458;53.678;14.080;2023-06-22T01:12:38;7.03;;;5.27;;
6840;SDS011;3458;53.678;14.080;2023-06-22T01:15:10;6.70;;;5.00;;
6840;SDS011;3458;53.678;14.080;2023-06-22T01:17:40;7.40;;;5.63;;
6840;SDS011;3458;53.678;14.080;2023-06-22T01:20:08;6.30;;;5.70;;
6840;SDS011;3458;53.678;14.080;2023-06-22T01:22:41;8.60;;;5.63;;
6840;SDS011;3458;53.678;14.080;2023-06-22T01:25:20;7.13;;;5.00;;
6840;SDS011;3458;53.678;14.080;2023-06-22T01:28:13;11.40;;;5.30;;
6840;SDS011;3458;53.678;14.080;2023-06-22T01:30:51;6.10;;;5.50;;
6840;SDS011;3458;53.678;14.080;2023-06-22T01:33:28;6.33;;;5.20;;
6840;SDS011;3458;53.678;14.080;2023-06-22T01:35:55;8.07;;;6.33;;
6840;SDS011;3458;53.678;14.080;2023-06-22T01:38:21;7.80;;;5.80;;
6840;SDS011;3458;53.678;14.080;2023-06-22T01:40:47;6.07;;;4.90;;
6840;SDS011;3458;53.678;14.080;2023-06-22T01:43:14;7.53;;;5.60;;
6840;SDS011;3458;53.678;14.080;2023-06-22T01:45:40;8.40;;;4.93;;
6840;SDS011;3458;53.678;14.080;2023-06-22T01:48:06;6.27;;;4.97;;
6840;SDS011;3458;53.678;14.080;2023-06-22T01:50:32;8.60;;;6.33;;
6840;SDS011;3458;53.678;14.080;2023-06-22T01:52:57;6.97;;;6.27;;
6840;SDS011;3458;53.678;14.080;2023-06-22T01:55:23;11.37;;;5.67;;
6840;SDS011;3458;53.678;14.080;2023-06-22T01:57:48;7.83;;;5.00;;
6840;SDS011;3458;53.678;14.080;2023-06-22T02:00:16;6.57;;;5.97;;
6840;SDS011;3458;53.678;14.080;2023-06-22T02:03:03;5.50;;;4.93;;
6840;SDS011;3458;53.678;14.080;2023-06-22T02:05:36;6.40;;;5.30;;
6840;SDS011;3458;53.678;14.080;2023-06-22T02:08:10;7.63;;;5.03;;
6840;SDS011;3458;53.678;14.080;2023-06-22T02:10:41;12.50;;;5.47;;
6840;SDS011;3458;53.678;14.080;2023-06-22T02:13:08;6.10;;;5.47;;
6840;SDS011;3458;53.678;14.080;2023-06-22T02:15:35;7.93;;;5.43;;
6840;SDS011;3458;53.678;14.080;2023-06-22T02:18:01;10.23;;;6.07;;
6840;SDS011;3458;53.678;14.080;2023-06-22T02:20:26;10.93;;;5.97;;
6840;SDS011;3458;53.678;14.080;2023-06-22T02:22:52;6.73;;;6.03;;
6840;SDS011;3458;53.678;14.080;2023-06-22T02:25:17;7.90;;;5.40;;
6840;SDS011;3458;53.678;14.080;2023-06-22T02:27:44;6.80;;;5.63;;
6840;SDS011;3458;53.678;14.080;2023-06-22T02:30:10;8.23;;;4.57;;
6840;SDS011;3458;53.678;14.080;2023-06-22T02:32:35;7.83;;;5.47;;
6840;SDS011;3458;53.678;14.080;2023-06-22T02:35:01;7.40;;;5.83;;
6840;SDS011;3458;53.678;14.080;2023-06-22T02:37:31;6.70;;;5.33;;
6840;SDS011;3458;53.678;14.080;2023-06-22T02:39:57;18.73;;;5.63;;
6840;SDS011;3458;53.678;14.080;2023-06-22T02:42:22;9.30;;;6.03;;
6840;SDS011;3458;53.678;14.080;2023-06-22T02:44:48;7.03;;;6.17;;
6840;SDS011;3458;53.678;14.080;2023-06-22T02:47:13;8.30;;;5.63;;
6840;SDS011;3458;53.678;14.080;2023-06-22T02:49:39;5.93;;;4.90;;
6840;SDS011;3458;53.678;14.080;2023-06-22T02:52:05;11.17;;;5.93;;
6840;SDS011;3458;53.678;14.080;2023-06-22T02:54:30;6.70;;;5.27;;
6840;SDS011;3458;53.678;14.080;2023-06-22T02:56:56;8.80;;;5.53;;
6840;SDS011;3458;53.678;14.080;2023-06-22T02:59:21;8.30;;;5.20;;
6840;SDS011;3458;53.678;14.080;2023-06-22T03:01:49;13.70;;;7.77;;
6840;SDS011;3458;53.678;14.080;2023-06-22T03:04:14;7.80;;;5.17;;
6840;SDS011;3458;53.678;14.080;2023-06-22T03:06:40;9.07;;;5.70;;
6840;SDS011;3458;53.678;14.080;2023-06-22T03:09:06;7.17;;;6.10;;
6840;SDS011;3458;53.678;14.080;2023-06-22T03:11:32;13.80;;;6.90;;
6840;SDS011;3458;53.678;14.080;2023-06-22T03:13:58;10.57;;;7.30;;
6840;SDS011;3458;53.678;14.080;2023-06-22T03:16:25;5.60;;;4.73;;
6840;SDS011;3458;53.678;14.080;2023-06-22T03:18:50;6.83;;;5.07;;
6840;SDS011;3458;53.678;14.080;2023-06-22T03:21:18;6.67;;;5.70;;
6840;SDS011;3458;53.678;14.080;2023-06-22T03:23:44;7.27;;;5.30;;
6840;SDS011;3458;53.678;14.080;2023-06-22T03:26:09;6.40;;;5.10;;
6840;SDS011;3458;53.678;14.080;2023-06-22T03:28:35;9.70;;;5.20;;
6840;SDS011;3458;53.678;14.080;2023-06-22T03:31:01;7.90;;;5.30;;
6840;SDS011;3458;53.678;14.080;2023-06-22T03:33:28;5.77;;;5.13;;
6840;SDS011;3458;53.678;14.080;2023-06-22T03:35:54;8.70;;;4.77;;
6840;SDS011;3458;53.678;14.080;2023-06-22T03:38:20;9.10;;;5.50;;
6840;SDS011;3458;53.678;14.080;2023-06-22T03:40:45;10.83;;;5.90;;
6840;SDS011;3458;53.678;14.080;2023-06-22T03:43:11;9.60;;;7.00;;
6840;SDS011;3458;53.678;14.080;2023-06-22T03:45:36;12.33;;;8.77;;
6840;SDS011;3458;53.678;14.080;2023-06-22T03:48:02;12.93;;;8.67;;
6840;SDS011;3458;53.678;14.080;2023-06-22T03:50:28;9.27;;;6.20;;
6840;SDS011;3458;53.678;14.080;2023-06-22T03:52:53;5.30;;;4.80;;
6840;SDS011;3458;53.678;14.080;2023-06-22T03:55:19;8.60;;;5.80;;
6840;SDS011;3458;53.678;14.080;2023-06-22T03:57:45;7.50;;;5.73;;
6840;SDS011;3458;53.678;14.080;2023-06-22T04:00:11;8.33;;;6.57;;
6840;SDS011;3458;53.678;14.080;2023-06-22T04:02:37;8.40;;;6.03;;
6840;SDS011;3458;53.678;14.080;2023-06-22T04:05:02;8.23;;;7.00;;
6840;SDS011;3458;53.678;14.080;2023-06-22T04:07:28;9.23;;;6.23;;
6840;SDS011;3458;53.678;14.080;2023-06-22T04:09:53;6.43;;;5.67;;
6840;SDS011;3458;53.678;14.080;2023-06-22T04:12:19;6.83;;;6.13;;
6840;SDS011;3458;53.678;14.080;2023-06-22T04:14:44;6.70;;;6.00;;
6840;SDS011;3458;53.678;14.080;2023-06-22T04:17:10;13.40;;;7.70;;
6840;SDS011;3458;53.678;14.080;2023-06-22T04:19:40;8.77;;;6.93;;
6840;SDS011;3458;53.678;14.080;2023-06-22T04:22:05;10.30;;;6.30;;
6840;SDS011;3458;53.678;14.080;2023-06-22T04:24:32;7.50;;;6.20;;
6840;SDS011;3458;53.678;14.080;2023-06-22T04:26:58;7.30;;;5.70;;
6840;SDS011;3458;53.678;14.080;2023-06-22T04:29:27;10.00;;;6.67;;
6840;SDS011;3458;53.678;14.080;2023-06-22T04:31:54;10.40;;;7.20;;
6840;SDS011;3458;53.678;14.080;2023-06-22T04:34:24;7.53;;;6.30;;
6840;SDS011;3458;53.678;14.080;2023-06-22T04:36:51;14.30;;;8.33;;
6840;SDS011;3458;53.678;14.080;2023-06-22T04:39:17;9.70;;;7.20;;
6840;SDS011;3458;53.678;14.080;2023-06-22T04:41:44;12.53;;;7.40;;
6840;SDS011;3458;53.678;14.080;2023-06-22T04:46:36;9.47;;;7.00;;
6840;SDS011;3458;53.678;14.080;2023-06-22T04:49:06;10.40;;;7.00;;
6840;SDS011;3458;53.678;14.080;2023-06-22T04:51:39;13.10;;;7.37;;
6840;SDS011;3458;53.678;14.080;2023-06-22T04:54:06;10.07;;;7.70;;
6840;SDS011;3458;53.678;14.080;2023-06-22T04:56:32;12.40;;;7.13;;
6840;SDS011;3458;53.678;14.080;2023-06-22T04:58:58;10.50;;;7.40;;
6840;SDS011;3458;53.678;14.080;2023-06-22T05:01:24;10.70;;;7.70;;
6840;SDS011;3458;53.678;14.080;2023-06-22T05:03:50;13.90;;;8.90;;
6840;SDS011;3458;53.678;14.080;2023-06-22T05:06:20;7.83;;;7.03;;
6840;SDS011;3458;53.678;14.080;2023-06-22T05:08:49;12.53;;;7.00;;
6840;SDS011;3458;53.678;14.080;2023-06-22T05:11:16;13.57;;;8.00;;
6840;SDS011;3458;53.678;14.080;2023-06-22T05:13:41;11.17;;;7.90;;
6840;SDS011;3458;53.678;14.080;2023-06-22T05:16:07;10.53;;;7.20;;
6840;SDS011;3458;53.678;14.080;2023-06-22T05:18:32;9.60;;;8.17;;
6840;SDS011;3458;53.678;14.080;2023-06-22T05:20:59;13.97;;;9.20;;
6840;SDS011;3458;53.678;14.080;2023-06-22T05:23:25;12.93;;;8.50;;
6840;SDS011;3458;53.678;14.080;2023-06-22T05:25:51;13.30;;;7.87;;
6840;SDS011;3458;53.678;14.080;2023-06-22T05:28:16;14.20;;;7.57;;
6840;SDS011;3458;53.678;14.080;2023-06-22T05:30:42;16.00;;;8.13;;
6840;SDS011;3458;53.678;14.080;2023-06-22T05:33:07;14.63;;;8.80;;
6840;SDS011;3458;53.678;14.080;2023-06-22T05:35:32;12.07;;;7.40;;
6840;SDS011;3458;53.678;14.080;2023-06-22T05:37:58;11.20;;;7.80;;
6840;SDS011;3458;53.678;14.080;2023-06-22T05:40:23;17.13;;;8.67;;
6840;SDS011;3458;53.678;14.080;2023-06-22T05:42:49;12.90;;;7.07;;
6840;SDS011;3458;53.678;14.080;2023-06-22T05:45:14;13.10;;;8.33;;
6840;SDS011;3458;53.678;14.080;2023-06-22T05:47:40;12.97;;;7.77;;
6840;SDS011;3458;53.678;14.080;2023-06-22T05:50:05;10.73;;;7.50;;
6840;SDS011;3458;53.678;14.080;2023-06-22T05:52:33;13.90;;;7.77;;
6840;SDS011;3458;53.678;14.080;2023-06-22T05:54:59;10.10;;;7.60;;
6840;SDS011;3458;53.678;14.080;2023-06-22T05:57:24;10.30;;;7.27;;
6840;SDS011;3458;53.678;14.080;2023-06-22T05:59:50;9.47;;;7.30;;
6840;SDS011;3458;53.678;14.080;2023-06-22T06:02:16;9.50;;;6.40;;
6840;SDS011;3458;53.678;14.080;2023-06-22T06:04:42;9.97;;;6.50;;
6840;SDS011;3458;53.678;14.080;2023-06-22T06:07:07;10.90;;;6.30;;
6840;SDS011;3458;53.678;14.080;2023-06-22T06:09:33;13.60;;;6.93;;
6840;SDS011;3458;53.678;14.080;2023-06-22T06:11:58;9.10;;;6.37;;
6840;SDS011;3458;53.678;14.080;2023-06-22T06:14:24;11.00;;;6.23;;
6840;SDS011;3458;53.678;14.080;2023-06-22T06:16:49;8.57;;;5.83;;
6840;SDS011;3458;53.678;14.080;2023-06-22T06:19:14;11.83;;;6.13;;
6840;SDS011;3458;53.678;14.080;2023-06-22T06:21:40;11.37;;;6.07;;
6840;SDS011;3458;53.678;14.080;2023-06-22T06:24:06;7.80;;;5.80;;
6840;SDS011;3458;53.678;14.080;2023-06-22T06:26:31;8.60;;;5.00;;
6840;SDS011;3458;53.678;14.080;2023-06-22T06:28:58;7.53;;;5.00;;
6840;SDS011;3458;53.678;14.080;2023-06-22T06:31:25;10.60;;;6.20;;
6840;SDS011;3458;53.678;14.080;2023-06-22T06:33:53;13.00;;;6.03;;
6840;SDS011;3458;53.678;14.080;2023-06-22T06:36:19;20.47;;;5.80;;
6840;SDS011;3458;53.678;14.080;2023-06-22T06:38:44;10.83;;;5.70;;
6840;SDS011;3458;53.678;14.080;2023-06-22T06:41:12;9.17;;;4.67;;
6840;SDS011;3458;53.678;14.080;2023-06-22T06:43:38;10.83;;;5.67;;
6840;SDS011;3458;53.678;14.080;2023-06-22T06:46:03;11.77;;;5.10;;
6840;SDS011;3458;53.678;14.080;2023-06-22T06:48:29;9.60;;;4.87;;
6840;SDS011;3458;53.678;14.080;2023-06-22T06:50:55;6.30;;;5.10;;
6840;SDS011;3458;53.678;14.080;2023-06-22T06:53:20;7.73;;;5.23;;
6840;SDS011;3458;53.678;14.080;2023-06-22T06:55:46;8.03;;;5.50;;
6840;SDS011;3458;53.678;14.080;2023-06-22T06:58:11;10.43;;;6.00;;
6840;SDS011;3458;53.678;14.080;2023-06-22T07:00:38;7.40;;;4.60;;
6840;SDS011;3458;53.678;14.080;2023-06-22T07:03:04;6.20;;;4.23;;
6840;SDS011;3458;53.678;14.080;2023-06-22T07:05:29;12.60;;;5.70;;
6840;SDS011;3458;53.678;14.080;2023-06-22T07:07:55;8.53;;;4.40;;
6840;SDS011;3458;53.678;14.080;2023-06-22T07:10:21;14.53;;;5.40;;
6840;SDS011;3458;53.678;14.080;2023-06-22T07:12:47;7.77;;;4.67;;
6840;SDS011;3458;53.678;14.080;2023-06-22T07:15:13;10.10;;;5.73;;
6840;SDS011;3458;53.678;14.080;2023-06-22T07:17:39;6.33;;;4.67;;
6840;SDS011;3458;53.678;14.080;2023-06-22T07:20:07;10.90;;;5.20;;
6840;SDS011;3458;53.678;14.080;2023-06-22T07:22:35;6.57;;;4.57;;
6840;SDS011;3458;53.678;14.080;2023-06-22T07:25:01;14.30;;;5.03;;
6840;SDS011;3458;53.678;14.080;2023-06-22T07:27:30;9.77;;;3.97;;
6840;SDS011;3458;53.678;14.080;2023-06-22T07:30:01;7.53;;;4.20;;
6840;SDS011;3458;53.678;14.080;2023-06-22T07:32:27;5.20;;;3.70;;
6840;SDS011;3458;53.678;14.080;2023-06-22T07:34:56;6.87;;;3.90;;
6840;SDS011;3458;53.678;14.080;2023-06-22T07:37:21;4.30;;;3.30;;
6840;SDS011;3458;53.678;14.080;2023-06-22T07:39:47;4.50;;;3.23;;
6840;SDS011;3458;53.678;14.080;2023-06-22T07:42:12;5.87;;;3.27;;
6840;SDS011;3458;53.678;14.080;2023-06-22T07:44:43;4.57;;;3.23;;
6840;SDS011;3458;53.678;14.080;2023-06-22T07:47:09;8.50;;;3.80;;
6840;SDS011;3458;53.678;14.080;2023-06-22T07:49:34;4.03;;;3.30;;
6840;SDS011;3458;53.678;14.080;2023-06-22T07:52:00;5.00;;;4.10;;
6840;SDS011;3458;53.678;14.080;2023-06-22T07:54:26;6.73;;;3.73;;
6840;SDS011;3458;53.678;14.080;2023-06-22T07:56:52;4.87;;;3.47;;
6840;SDS011;3458;53.678;14.080;2023-06-22T07:59:17;5.30;;;3.73;;
6840;SDS011;3458;53.678;14.080;2023-06-22T08:01:43;10.87;;;6.20;;
6840;SDS011;3458;53.678;14.080;2023-06-22T08:04:08;4.83;;;3.93;;
6840;SDS011;3458;53.678;14.080;2023-06-22T08:06:34;3.47;;;3.17;;
6840;SDS011;3458;53.678;14.080;2023-06-22T08:09:00;6.13;;;3.60;;
6840;SDS011;3458;53.678;14.080;2023-06-22T08:11:25;6.17;;;3.60;;
6840;SDS011;3458;53.678;14.080;2023-06-22T08:13:51;4.93;;;4.00;;
6840;SDS011;3458;53.678;14.080;2023-06-22T08:16:17;5.93;;;3.53;;
6840;SDS011;3458;53.678;14.080;2023-06-22T08:18:43;8.33;;;3.40;;
6840;SDS011;3458;53.678;14.080;2023-06-22T08:21:08;4.03;;;3.47;;
6840;SDS011;3458;53.678;14.080;2023-06-22T08:23:34;5.27;;;3.17;;
6840;SDS011;3458;53.678;14.080;2023-06-22T08:26:00;9.33;;;5.93;;
6840;SDS011;3458;53.678;14.080;2023-06-22T08:28:25;16.73;;;6.80;;
6840;SDS011;3458;53.678;14.080;2023-06-22T08:30:51;8.47;;;4.67;;
6840;SDS011;3458;53.678;14.080;2023-06-22T08:33:16;5.13;;;3.60;;
6840;SDS011;3458;53.678;14.080;2023-06-22T08:35:42;6.67;;;4.37;;
6840;SDS011;3458;53.678;14.080;2023-06-22T08:38:08;6.00;;;3.60;;
6840;SDS011;3458;53.678;14.080;2023-06-22T08:40:34;34.13;;;5.43;;
6840;SDS011;3458;53.678;14.080;2023-06-22T08:42:59;6.33;;;3.53;;
6840;SDS011;3458;53.678;14.080;2023-06-22T08:45:25;4.83;;;3.43;;
6840;SDS011;3458;53.678;14.080;2023-06-22T08:47:50;3.87;;;3.40;;
6840;SDS011;3458;53.678;14.080;2023-06-22T08:50:16;4.40;;;3.57;;
6840;SDS011;3458;53.678;14.080;2023-06-22T08:52:41;5.03;;;3.60;;
6840;SDS011;3458;53.678;14.080;2023-06-22T08:55:07;6.07;;;3.63;;
6840;SDS011;3458;53.678;14.080;2023-06-22T08:57:34;6.33;;;3.67;;
6840;SDS011;3458;53.678;14.080;2023-06-22T08:59:59;8.23;;;3.63;;
6840;SDS011;3458;53.678;14.080;2023-06-22T09:02:25;4.87;;;3.50;;
6840;SDS011;3458;53.678;14.080;2023-06-22T09:04:51;5.63;;;3.80;;
6840;SDS011;3458;53.678;14.080;2023-06-22T09:07:21;5.20;;;3.60;;
6840;SDS011;3458;53.678;14.080;2023-06-22T09:09:50;13.53;;;8.30;;
6840;SDS011;3458;53.678;14.080;2023-06-22T09:12:16;6.20;;;3.70;;
6840;SDS011;3458;53.678;14.080;2023-06-22T09:14:44;5.40;;;3.57;;
6840;SDS011;3458;53.678;14.080;2023-06-22T09:17:10;6.90;;;4.50;;
6840;SDS011;3458;53.678;14.080;2023-06-22T09:19:37;6.30;;;4.20;;
6840;SDS011;3458;53.678;14.080;2023-06-22T09:22:02;5.87;;;3.07;;
6840;SDS011;3458;53.678;14.080;2023-06-22T09:24:28;6.27;;;3.40;;
6840;SDS011;3458;53.678;14.080;2023-06-22T09:26:54;3.83;;;3.47;;
6840;SDS011;3458;53.678;14.080;2023-06-22T09:29:19;6.03;;;4.77;;
6840;SDS011;3458;53.678;14.080;2023-06-22T09:31:45;5.07;;;3.60;;
6840;SDS011;3458;53.678;14.080;2023-06-22T09:34:10;5.30;;;4.07;;
6840;SDS011;3458;53.678;14.080;2023-06-22T09:36:35;11.73;;;3.73;;
6840;SDS011;3458;53.678;14.080;2023-06-22T09:39:01;3.57;;;3.27;;
6840;SDS011;3458;53.678;14.080;2023-06-22T09:41:30;5.37;;;3.60;;
6840;SDS011;3458;53.678;14.080;2023-06-22T09:43:56;4.37;;;3.53;;
6840;SDS011;3458;53.678;14.080;2023-06-22T09:46:22;4.57;;;3.33;;
6840;SDS011;3458;53.678;14.080;2023-06-22T09:48:50;5.33;;;3.60;;
6840;SDS011;3458;53.678;14.080;2023-06-22T09:51:15;5.53;;;3.90;;
6840;SDS011;3458;53.678;14.080;2023-06-22T09:53:41;7.23;;;5.23;;
6840;SDS011;3458;53.678;14.080;2023-06-22T09:56:06;7.40;;;3.63;;
6840;SDS011;3458;53.678;14.080;2023-06-22T09:58:36;5.87;;;3.40;;
6840;SDS011;3458;53.678;14.080;2023-06-22T10:01:01;7.17;;;2.67;;
6840;SDS011;3458;53.678;14.080;2023-06-22T10:03:27;3.23;;;2.77;;
6840;SDS011;3458;53.678;14.080;2023-06-22T10:05:52;5.73;;;3.20;;
6840;SDS011;3458;53.678;14.080;2023-06-22T10:08:18;3.77;;;3.10;;
6840;SDS011;3458;53.678;14.080;2023-06-22T10:10:43;4.00;;;3.23;;
6840;SDS011;3458;53.678;14.080;2023-06-22T10:13:09;5.90;;;3.30;;
6840;SDS011;3458;53.678;14.080;2023-06-22T10:15:36;6.53;;;3.47;;
6840;SDS011;3458;53.678;14.080;2023-06-22T10:18:01;4.37;;;2.90;;
6840;SDS011;3458;53.678;14.080;2023-06-22T10:20:27;3.93;;;3.30;;
6840;SDS011;3458;53.678;14.080;2023-06-22T10:22:53;5.30;;;3.20;;
6840;SDS011;3458;53.678;14.080;2023-06-22T10:25:19;4.00;;;3.27;;
6840;SDS011;3458;53.678;14.080;2023-06-22T10:27:44;3.80;;;2.70;;
6840;SDS011;3458;53.678;14.080;2023-06-22T10:30:10;3.07;;;2.80;;
6840;SDS011;3458;53.678;14.080;2023-06-22T10:32:40;4.73;;;3.50;;
6840;SDS011;3458;53.678;14.080;2023-06-22T10:35:07;4.83;;;2.97;;
6840;SDS011;3458;53.678;14.080;2023-06-22T10:37:35;6.47;;;3.07;;
6840;SDS011;3458;53.678;14.080;2023-06-22T10:40:01;3.23;;;2.93;;
6840;SDS011;3458;53.678;14.080;2023-06-22T10:42:28;4.73;;;3.23;;
6840;SDS011;3458;53.678;14.080;2023-06-22T10:44:54;5.87;;;2.80;;
6840;SDS011;3458;53.678;14.080;2023-06-22T10:47:19;3.07;;;2.70;;
6840;SDS011;3458;53.678;14.080;2023-06-22T10:49:45;2.90;;;2.70;;
6840;SDS011;3458;53.678;14.080;2023-06-22T10:52:10;5.33;;;3.07;;
6840;SDS011;3458;53.678;14.080;2023-06-22T10:54:36;3.93;;;3.10;;
6840;SDS011;3458;53.678;14.080;2023-06-22T10:57:02;3.63;;;3.33;;
6840;SDS011;3458;53.678;14.080;2023-06-22T10:59:28;9.17;;;6.67;;
6840;SDS011;3458;53.678;14.080;2023-06-22T11:01:55;4.00;;;3.20;;
6840;SDS011;3458;53.678;14.080;2023-06-22T11:04:20;5.80;;;2.67;;
6840;SDS011;3458;53.678;14.080;2023-06-22T11:06:47;4.33;;;3.10;;
6840;SDS011;3458;53.678;14.080;2023-06-22T11:09:13;4.20;;;3.00;;
6840;SDS011;3458;53.678;14.080;2023-06-22T11:11:43;4.37;;;2.77;;
6840;SDS011;3458;53.678;14.080;2023-06-22T11:14:09;13.23;;;3.00;;
6840;SDS011;3458;53.678;14.080;2023-06-22T11:16:34;3.03;;;2.60;;
6840;SDS011;3458;53.678;14.080;2023-06-22T11:19:00;4.97;;;2.80;;
6840;SDS011;3458;53.678;14.080;2023-06-22T11:21:25;4.80;;;3.40;;
6840;SDS011;3458;53.678;14.080;2023-06-22T11:23:51;3.17;;;2.87;;
6840;SDS011;3458;53.678;14.080;2023-06-22T11:26:16;2.93;;;2.63;;
6840;SDS011;3458;53.678;14.080;2023-06-22T11:28:42;4.87;;;2.70;;
6840;SDS011;3458;53.678;14.080;2023-06-22T11:31:07;3.80;;;3.23;;
6840;SDS011;3458;53.678;14.080;2023-06-22T11:33:33;3.10;;;2.80;;
6840;SDS011;3458;53.678;14.080;2023-06-22T11:35:58;3.00;;;2.70;;
6840;SDS011;3458;53.678;14.080;2023-06-22T11:38:24;3.37;;;3.00;;
6840;SDS011;3458;53.678;14.080;2023-06-22T11:40:50;3.23;;;2.50;;
6840;SDS011;3458;53.678;14.080;2023-06-22T11:43:16;3.90;;;3.00;;
6840;SDS011;3458;53.678;14.080;2023-06-22T11:45:41;5.33;;;2.90;;
6840;SDS011;3458;53.678;14.080;2023-06-22T11:48:07;3.10;;;2.50;;
6840;SDS011;3458;53.678;14.080;2023-06-22T11:50:32;6.07;;;2.73;;
6840;SDS011;3458;53.678;14.080;2023-06-22T11:53:01;4.63;;;3.00;;
6840;SDS011;3458;53.678;14.080;2023-06-22T11:55:28;3.83;;;3.07;;
6840;SDS011;3458;53.678;14.080;2023-06-22T11:57:54;5.03;;;2.83;;
6840;SDS011;3458;53.678;14.080;2023-06-22T12:00:23;4.40;;;2.73;;
6840;SDS011;3458;53.678;14.080;2023-06-22T12:02:49;5.17;;;3.10;;
6840;SDS011;3458;53.678;14.080;2023-06-22T12:05:19;3.27;;;2.70;;
6840;SDS011;3458;53.678;14.080;2023-06-22T12:07:49;3.93;;;2.60;;
6840;SDS011;3458;53.678;14.080;2023-06-22T12:10:15;4.37;;;2.60;;
6840;SDS011;3458;53.678;14.080;2023-06-22T12:12:41;7.30;;;2.60;;
6840;SDS011;3458;53.678;14.080;2023-06-22T12:15:06;5.13;;;2.90;;
6840;SDS011;3458;53.678;14.080;2023-06-22T12:17:34;2.90;;;2.70;;
6840;SDS011;3458;53.678;14.080;2023-06-22T12:19:59;3.17;;;2.87;;
6840;SDS011;3458;53.678;14.080;2023-06-22T12:22:25;6.93;;;6.10;;
6840;SDS011;3458;53.678;14.080;2023-06-22T12:24:50;3.23;;;2.60;;
6840;SDS011;3458;53.678;14.080;2023-06-22T12:27:16;3.30;;;2.90;;
6840;SDS011;3458;53.678;14.080;2023-06-22T12:29:43;3.13;;;2.83;;
6840;SDS011;3458;53.678;14.080;2023-06-22T12:32:10;4.37;;;2.90;;
6840;SDS011;3458;53.678;14.080;2023-06-22T12:34:38;3.60;;;2.83;;
6840;SDS011;3458;53.678;14.080;2023-06-22T12:37:04;4.37;;;2.50;;
6840;SDS011;3458;53.678;14.080;2023-06-22T12:39:30;17.23;;;3.57;;
6840;SDS011;3458;53.678;14.080;2023-06-22T12:41:56;3.23;;;2.70;;
6840;SDS011;3458;53.678;14.080;2023-06-22T12:44:22;3.13;;;2.83;;
6840;SDS011;3458;53.678;14.080;2023-06-22T12:46:47;5.00;;;2.77;;
6840;SDS011;3458;53.678;14.080;2023-06-22T12:49:13;5.43;;;2.97;;
6840;SDS011;3458;53.678;14.080;2023-06-22T12:51:41;4.83;;;2.70;;
6840;SDS011;3458;53.678;14.080;2023-06-22T12:54:08;4.97;;;3.20;;
6840;SDS011;3458;53.678;14.080;2023-06-22T12:56:34;5.63;;;3.00;;
6840;SDS011;3458;53.678;14.080;2023-06-22T12:59:00;3.83;;;2.90;;
6840;SDS011;3458;53.678;14.080;2023-06-22T13:01:29;4.47;;;2.70;;
6840;SDS011;3458;53.678;14.080;2023-06-22T13:03:55;3.30;;;3.00;;
6840;SDS011;3458;53.678;14.080;2023-06-22T13:06:21;3.33;;;2.90;;
6840;SDS011;3458;53.678;14.080;2023-06-22T13:08:47;4.57;;;2.80;;
6840;SDS011;3458;53.678;14.080;2023-06-22T13:11:12;5.60;;;2.90;;
6840;SDS011;3458;53.678;14.080;2023-06-22T13:13:38;4.53;;;2.57;;
6840;SDS011;3458;53.678;14.080;2023-06-22T13:16:04;2.63;;;2.43;;
6840;SDS011;3458;53.678;14.080;2023-06-22T13:18:29;4.10;;;2.33;;
6840;SDS011;3458;53.678;14.080;2023-06-22T13:20:55;4.53;;;2.60;;
6840;SDS011;3458;53.678;14.080;2023-06-22T13:23:21;2.97;;;2.63;;
6840;SDS011;3458;53.678;14.080;2023-06-22T13:25:46;2.57;;;2.37;;
6840;SDS011;3458;53.678;14.080;2023-06-22T13:28:12;8.17;;;2.67;;
6840;SDS011;3458;53.678;14.080;2023-06-22T13:30:39;8.00;;;2.50;;
6840;SDS011;3458;53.678;14.080;2023-06-22T13:33:05;4.70;;;3.30;;
6840;SDS011;3458;53.678;14.080;2023-06-22T13:35:31;3.73;;;2.80;;
6840;SDS011;3458;53.678;14.080;2023-06-22T13:37:56;3.60;;;2.40;;
6840;SDS011;3458;53.678;14.080;2023-06-22T13:40:22;5.90;;;2.53;;
6840;SDS011;3458;53.678;14.080;2023-06-22T13:42:47;7.53;;;2.80;;
6840;SDS011;3458;53.678;14.080;2023-06-22T13:45:13;5.73;;;2.63;;
6840;SDS011;3458;53.678;14.080;2023-06-22T13:47:38;8.20;;;2.27;;
6840;SDS011;3458;53.678;14.080;2023-06-22T13:50:04;8.20;;;2.97;;
6840;SDS011;3458;53.678;14.080;2023-06-22T13:52:30;2.47;;;2.23;;
6840;SDS011;3458;53.678;14.080;2023-06-22T13:54:56;4.13;;;2.40;;
6840;SDS011;3458;53.678;14.080;2023-06-22T13:57:21;4.10;;;2.70;;
6840;SDS011;3458;53.678;14.080;2023-06-22T13:59:47;2.70;;;2.50;;
6840;SDS011;3458;53.678;14.080;2023-06-22T14:02:12;2.67;;;2.47;;
6840;SDS011;3458;53.678;14.080;2023-06-22T14:04:38;2.73;;;2.53;;
6840;SDS011;3458;53.678;14.080;2023-06-22T14:07:03;1.87;;;1.77;;
6840;SDS011;3458;53.678;14.080;2023-06-22T14:09:29;2.23;;;2.03;;
6840;SDS011;3458;53.678;14.080;2023-06-22T14:11:55;3.10;;;2.80;;
6840;SDS011;3458;53.678;14.080;2023-06-22T14:14:21;7.20;;;2.73;;
6840;SDS011;3458;53.678;14.080;2023-06-22T14:16:46;3.17;;;2.27;;
6840;SDS011;3458;53.678;14.080;2023-06-22T14:19:18;2.57;;;2.20;;
6840;SDS011;3458;53.678;14.080;2023-06-22T14:21:43;2.50;;;2.30;;
6840;SDS011;3458;53.678;14.080;2023-06-22T14:24:09;4.10;;;2.37;;
6840;SDS011;3458;53.678;14.080;2023-06-22T14:26:34;8.90;;;2.30;;
6840;SDS011;3458;53.678;14.080;2023-06-22T14:29:00;2.90;;;2.13;;
6840;SDS011;3458;53.678;14.080;2023-06-22T14:31:28;3.47;;;2.27;;
6840;SDS011;3458;53.678;14.080;2023-06-22T14:33:54;2.50;;;2.30;;
6840;SDS011;3458;53.678;14.080;2023-06-22T14:36:19;1.93;;;1.83;;
6840;SDS011;3458;53.678;14.080;2023-06-22T14:38:45;2.10;;;1.90;;
6840;SDS011;3458;53.678;14.080;2023-06-22T14:41:11;4.00;;;2.10;;
6840;SDS011;3458;53.678;14.080;2023-06-22T14:43:37;2.10;;;1.90;;
6840;SDS011;3458;53.678;14.080;2023-06-22T14:46:02;2.40;;;1.70;;
6840;SDS011;3458;53.678;14.080;2023-06-22T14:48:28;3.27;;;2.03;;
6840;SDS011;3458;53.678;14.080;2023-06-22T14:50:54;9.00;;;2.90;;
6840;SDS011;3458;53.678;14.080;2023-06-22T14:53:19;3.37;;;2.57;;
6840;SDS011;3458;53.678;14.080;2023-06-22T14:55:45;2.10;;;2.00;;